Time;durP1;ratioP1;P1;durP2;ratioP2;P2;SDS_P1;SDS_P2;PMS_P1;PMS_P2;Temp;Humidity;BMP_temperature;BMP_pressure;BME280_temperature;BME280_humidity;BME280_pressure;Samples;Min_cycle;Max_cycle;Signal;HPM_P1;HPM_P2
2021/06/21 00:01:45;;;;;;;;;;;;;;;23.64;93.22;97985.88;5053997;28;19955;-85
2021/06/21 00:04:10;;;;;;;;;;;;;;;23.87;94.26;97980.91;5038149;28;19931;-86
2021/06/21 00:06:36;;;;;;;;;;;;;;;23.11;100.00;97979.00;5038133;28;19920;-86
2021/06/21 00:09:02;;;;;;;;;;;;;;;24.11;94.97;97987.25;5071185;28;19964;-86
2021/06/21 00:11:27;;;;;;;;;;;;;;;23.35;100.00;97976.50;5038603;28;20042;-85
2021/06/21 00:13:53;;;;;;;;;;;;;;;23.09;100.00;97970.44;5037817;28;19931;-86
2021/06/21 00:16:18;;;;;;;;;;;;;;;22.85;100.00;97968.41;5053530;28;19921;-87
2021/06/21 00:18:43;;;;;;;;;;;;;;;23.63;99.70;97967.63;5072167;28;19990;-86
2021/06/21 00:21:09;;;;;;;;;;;;;;;23.00;100.00;97961.69;5054257;28;19920;-86
2021/06/21 00:23:34;;;;;;;;;;;;;;;22.94;100.00;97955.22;5037516;28;19920;-87
2021/06/21 00:25:59;;;;;;;;;;;;;;;23.72;99.66;97966.66;5037521;28;20006;-86
2021/06/21 00:28:25;;;;;;;;;;;;;;;23.62;100.00;97953.66;5038292;28;19935;-86
2021/06/21 00:30:50;;;;;;;;;;;;;;;23.14;100.00;97947.16;5053042;28;19957;-87
2021/06/21 00:33:15;;;;;;;;;;;;;;;23.23;100.00;97946.25;5054921;28;19921;-87
2021/06/21 00:35:41;;;;;;;;;;;;;;;22.65;100.00;97946.75;5053967;28;19963;-86
2021/06/21 00:38:06;;;;;;;;;;;;;;;23.70;94.76;97947.63;5038515;28;19916;-86
2021/06/21 00:40:32;;;;;;;;;;;;;;;23.89;100.00;97946.56;5054012;28;20034;-86
2021/06/21 00:42:58;;;;;;;;;;;;;;;23.34;100.00;97945.97;5054081;28;19930;-87
2021/06/21 00:45:23;;;;;;;;;;;;;;;23.70;100.00;97948.44;5054103;28;19923;-86
2021/06/21 00:47:49;;;;;;;;;;;;;;;23.02;100.00;97953.66;5038253;28;19924;-87
2021/06/21 00:50:15;;;;;;;;;;;;;;;22.93;100.00;97950.94;5054379;28;19927;-87
2021/06/21 00:52:40;;;;;;;;;;;;;;;23.42;100.00;97944.38;5053708;28;19920;-87
2021/06/21 00:55:06;;;;;;;;;;;;;;;23.03;100.00;97955.28;5071821;28;19924;-87
2021/06/21 00:57:32;;;;;;;;;;;;;;;23.03;100.00;97964.00;5054752;28;19916;-86
2021/06/21 01:00:00;;;;;;;;;;;;;;;23.46;100.00;97964.91;5054365;28;20018;-87
2021/06/21 01:02:26;;;;;;;;;;;;;;;23.42;100.00;97968.00;5040019;28;20018;-87
2021/06/21 01:04:53;;;;;;;;;;;;;;;23.29;100.00;97971.91;5074947;28;20433;-87
2021/06/21 01:07:18;;;;;;;;;;;;;;;24.33;98.96;97976.09;5040865;28;20327;-86
2021/06/21 01:09:44;;;;;;;;;;;;;;;24.42;88.92;97976.94;5057924;28;19927;-86
2021/06/21 01:12:20;;;;;;;;;;;;;;;24.21;92.83;97986.13;5040711;28;20398;-86
2021/06/21 01:14:49;;;;;;;;;;;;;;;25.20;93.41;97983.59;5041027;28;19924;-87
2021/06/21 01:17:21;;;;;;;;;;;;;;;24.32;100.00;97984.19;5056619;28;19944;-87
2021/06/21 01:19:50;;;;;;;;;;;;;;;24.80;86.37;97982.63;5057219;28;20331;-87
2021/06/21 01:22:34;;;;;;;;;;;;;;;24.86;91.60;97987.22;5056054;28;19935;-86
2021/06/21 01:25:11;;;;;;;;;;;;;;;25.60;93.15;97987.13;5057734;28;20340;-86
2021/06/21 01:27:40;;;;;;;;;;;;;;;25.26;97.97;97975.03;5057091;28;19927;-85
2021/06/21 01:30:13;;;;;;;;;;;;;;;23.03;100.00;97961.38;5056906;28;19927;-85
2021/06/21 01:32:41;;;;;;;;;;;;;;;21.99;100.00;97948.75;5073911;28;19924;-85
2021/06/21 01:35:07;;;;;;;;;;;;;;;22.88;100.00;97947.13;5074917;28;19920;-85
2021/06/21 01:37:32;;;;;;;;;;;;;;;22.63;100.00;97948.75;5053805;28;19938;-85
2021/06/21 01:39:58;;;;;;;;;;;;;;;23.45;100.00;97949.31;5056960;28;19939;-86
2021/06/21 01:42:24;;;;;;;;;;;;;;;23.44;100.00;97937.16;5039688;28;19916;-85
2021/06/21 01:44:55;;;;;;;;;;;;;;;22.62;100.00;97931.34;5056812;28;19923;-85
2021/06/21 01:47:21;;;;;;;;;;;;;;;23.92;100.00;97930.47;5040022;28;20295;-86
2021/06/21 01:49:46;;;;;;;;;;;;;;;23.38;100.00;97918.41;5040029;28;19930;-85
2021/06/21 01:52:12;;;;;;;;;;;;;;;23.51;100.00;97906.63;5056481;28;19920;-85
2021/06/21 01:54:39;;;;;;;;;;;;;;;22.29;100.00;97891.72;5039477;28;19931;-85
2021/06/21 01:57:04;;;;;;;;;;;;;;;21.97;100.00;97890.41;5056979;28;20323;-85
2021/06/21 01:59:30;;;;;;;;;;;;;;;22.11;100.00;97875.94;5056098;28;19920;-86
2021/06/21 02:01:56;;;;;;;;;;;;;;;21.29;100.00;97877.63;5040727;28;19936;-86
2021/06/21 02:04:21;;;;;;;;;;;;;;;21.40;100.00;97871.38;5055449;28;20022;-86
2021/06/21 02:06:47;;;;;;;;;;;;;;;21.26;100.00;97873.50;5039624;28;20064;-86
2021/06/21 02:09:12;;;;;;;;;;;;;;;21.17;100.00;97882.22;5039571;28;19963;-85
2021/06/21 02:11:37;;;;;;;;;;;;;;;21.08;100.00;97881.28;5055229;28;19927;-85
2021/06/21 02:14:03;;;;;;;;;;;;;;;21.26;100.00;97883.97;5039063;28;20035;-85
2021/06/21 02:16:29;;;;;;;;;;;;;;;21.43;100.00;97881.59;5037543;28;19924;-86
2021/06/21 02:18:54;;;;;;;;;;;;;;;21.69;100.00;97876.47;5054424;28;19974;-85
2021/06/21 02:21:20;;;;;;;;;;;;;;;22.09;100.00;97873.47;5055176;28;19924;-85
2021/06/21 02:23:46;;;;;;;;;;;;;;;22.17;100.00;97887.63;5037438;28;19946;-86
2021/06/21 02:26:11;;;;;;;;;;;;;;;21.74;100.00;97890.00;5038572;28;19931;-85
2021/06/21 02:28:37;;;;;;;;;;;;;;;21.69;100.00;97893.06;5053594;28;19924;-86
2021/06/21 02:31:04;;;;;;;;;;;;;;;22.37;100.00;97883.91;5039412;28;20386;-86
2021/06/21 02:33:30;;;;;;;;;;;;;;;21.68;100.00;97888.75;5056207;28;19963;-86
2021/06/21 02:35:55;;;;;;;;;;;;;;;21.84;100.00;97885.50;5039157;28;20015;-86
2021/06/21 02:38:20;;;;;;;;;;;;;;;21.58;100.00;97881.94;5056343;28;19916;-86
2021/06/21 02:40:46;;;;;;;;;;;;;;;21.04;100.00;97884.34;5038306;28;20118;-88
2021/06/21 02:43:11;;;;;;;;;;;;;;;21.36;100.00;97885.72;5039089;28;19927;-87
2021/06/21 02:45:37;;;;;;;;;;;;;;;21.15;100.00;97876.31;5037567;28;19920;-87
2021/06/21 02:48:03;;;;;;;;;;;;;;;21.02;100.00;97873.19;5056310;28;19970;-87
2021/06/21 02:50:28;;;;;;;;;;;;;;;21.66;100.00;97872.38;5055065;28;19924;-87
2021/06/21 02:53:13;;;;;;;;;;;;;;;21.33;100.00;97872.94;5039637;28;19924;-87
2021/06/21 02:55:52;;;;;;;;;;;;;;;21.18;100.00;97875.19;5054240;28;20519;-86
2021/06/21 02:58:19;;;;;;;;;;;;;;;21.76;100.00;97871.47;5056322;28;19920;-87
2021/06/21 03:00:45;;;;;;;;;;;;;;;21.60;100.00;97887.84;5055107;28;19927;-87
2021/06/21 03:03:10;;;;;;;;;;;;;;;22.09;100.00;97889.19;5039772;28;19981;-87
2021/06/21 03:05:36;;;;;;;;;;;;;;;21.68;100.00;97880.91;5072190;28;19933;-87
2021/06/21 03:08:02;;;;;;;;;;;;;;;22.37;100.00;97876.03;5055174;28;19923;-87
2021/06/21 03:10:27;;;;;;;;;;;;;;;22.10;100.00;97890.00;5037698;28;19928;-87
2021/06/21 03:12:53;;;;;;;;;;;;;;;22.10;100.00;97888.22;5055546;28;20677;-86
2021/06/21 03:15:19;;;;;;;;;;;;;;;22.31;100.00;97889.75;5055455;28;20051;-86
2021/06/21 03:17:45;;;;;;;;;;;;;;;22.65;100.00;97889.03;5054641;28;19943;-87
2021/06/21 03:20:11;;;;;;;;;;;;;;;22.65;100.00;97894.28;5054347;28;20875;-86
2021/06/21 03:22:38;;;;;;;;;;;;;;;22.96;100.00;97892.03;5037110;28;19962;-87
2021/06/21 03:25:03;;;;;;;;;;;;;;;23.52;100.00;97890.72;5037420;28;19920;-87
2021/06/21 03:27:29;;;;;;;;;;;;;;;23.57;100.00;97891.06;5054938;28;20338;-87
2021/06/21 03:29:55;;;;;;;;;;;;;;;23.67;100.00;97892.72;5037832;28;20414;-87
2021/06/21 03:32:33;;;;;;;;;;;;;;;23.83;100.00;97886.72;5055343;28;19920;-87
2021/06/21 03:35:00;;;;;;;;;;;;;;;23.91;100.00;97876.25;5052726;28;19924;-87
2021/06/21 03:37:26;;;;;;;;;;;;;;;23.20;100.00;97878.25;5054955;28;19920;-87
2021/06/21 03:39:51;;;;;;;;;;;;;;;22.62;100.00;97878.84;5037811;28;20401;-87
2021/06/21 03:42:16;;;;;;;;;;;;;;;23.23;100.00;97870.06;5055274;28;19927;-88
2021/06/21 03:44:42;;;;;;;;;;;;;;;23.31;100.00;97864.84;5038060;28;19931;-83
2021/06/21 03:47:09;;;;;;;;;;;;;;;23.61;100.00;97867.91;5051054;28;19931;-83
2021/06/21 03:49:34;;;;;;;;;;;;;;;24.03;100.00;97869.69;5071921;28;19928;-85
2021/06/21 03:51:59;;;;;;;;;;;;;;;24.07;100.00;97870.19;5071685;28;19924;-88
2021/06/21 03:54:24;;;;;;;;;;;;;;;24.16;100.00;97864.78;5054288;28;19961;-84
2021/06/21 03:56:50;;;;;;;;;;;;;;;23.06;100.00;97877.03;5054345;28;19931;-84
2021/06/21 03:59:15;;;;;;;;;;;;;;;23.49;100.00;97871.81;5072050;28;19924;-84
2021/06/21 04:01:40;;;;;;;;;;;;;;;23.84;100.00;97864.72;5072086;28;19932;-83
2021/06/21 04:04:06;;;;;;;;;;;;;;;24.08;100.00;97862.13;5053330;28;19931;-84
2021/06/21 04:06:31;;;;;;;;;;;;;;;23.93;100.00;97867.22;5052848;28;20496;-83
2021/06/21 04:08:56;;;;;;;;;;;;;;;24.46;100.00;97861.66;5055339;28;20803;-83
2021/06/21 04:11:23;;;;;;;;;;;;;;;24.56;100.00;97864.97;5053272;28;19924;-81
2021/06/21 04:13:48;;;;;;;;;;;;;;;24.55;100.00;97864.13;5038286;28;20034;-81
2021/06/21 04:16:13;;;;;;;;;;;;;;;24.26;100.00;97863.78;5069035;28;19930;-84
2021/06/21 04:18:39;;;;;;;;;;;;;;;24.36;100.00;97867.91;5053591;28;20257;-81
2021/06/21 04:21:04;;;;;;;;;;;;;;;24.41;100.00;97872.69;5071045;28;19923;-81
2021/06/21 04:23:29;;;;;;;;;;;;;;;24.08;100.00;97872.63;5036700;28;20544;-81
2021/06/21 04:25:55;;;;;;;;;;;;;;;24.39;100.00;97869.38;5053616;28;19924;-81
2021/06/21 04:28:20;;;;;;;;;;;;;;;24.52;100.00;97869.75;5071627;28;20001;-79
2021/06/21 04:30:48;;;;;;;;;;;;;;;24.37;100.00;97861.66;5071690;28;20280;-80
2021/06/21 04:33:13;;;;;;;;;;;;;;;23.65;100.00;97866.63;5072339;28;19924;-80
2021/06/21 04:35:38;;;;;;;;;;;;;;;23.28;100.00;97875.66;5072648;28;20487;-81
2021/06/21 04:38:04;;;;;;;;;;;;;;;23.77;100.00;97865.38;5056750;28;19930;-81
2021/06/21 04:40:31;;;;;;;;;;;;;;;24.25;100.00;97862.16;5056892;28;20291;-82
2021/06/21 04:42:56;;;;;;;;;;;;;;;24.63;100.00;97864.16;5058292;28;20006;-80
2021/06/21 04:45:21;;;;;;;;;;;;;;;24.40;100.00;97868.38;5057745;28;19916;-80
2021/06/21 04:47:47;;;;;;;;;;;;;;;24.67;100.00;97863.81;5058132;28;19920;-81
2021/06/21 04:50:13;;;;;;;;;;;;;;;24.52;100.00;97861.00;5056953;28;19959;-80
2021/06/21 04:52:39;;;;;;;;;;;;;;;24.27;100.00;97865.41;5055690;28;20735;-81
2021/06/21 04:55:06;;;;;;;;;;;;;;;24.79;100.00;97867.72;5055383;28;19920;-81
2021/06/21 04:57:32;;;;;;;;;;;;;;;24.17;100.00;97861.13;5076913;28;19932;-82
2021/06/21 04:59:58;;;;;;;;;;;;;;;23.05;100.00;97864.88;5073664;28;20016;-82
2021/06/21 05:02:23;;;;;;;;;;;;;;;23.12;100.00;97860.63;5074910;28;19919;-81
2021/06/21 05:04:48;;;;;;;;;;;;;;;22.70;100.00;97855.28;5074006;28;20406;-80
2021/06/21 05:07:14;;;;;;;;;;;;;;;22.84;100.00;97861.78;5075091;28;20431;-80
2021/06/21 05:09:39;;;;;;;;;;;;;;;23.16;100.00;97855.91;5074288;28;19931;-81
2021/06/21 05:12:05;;;;;;;;;;;;;;;23.12;100.00;97854.56;5056543;28;20329;-82
2021/06/21 05:14:30;;;;;;;;;;;;;;;23.28;100.00;97859.91;5073771;28;19920;-80
2021/06/21 05:16:55;;;;;;;;;;;;;;;23.27;100.00;97858.25;5054701;28;19987;-80
2021/06/21 05:19:21;;;;;;;;;;;;;;;23.36;100.00;97846.81;5072719;28;19916;-84
2021/06/21 05:21:46;;;;;;;;;;;;;;;23.27;100.00;97842.50;5055114;28;19920;-82
2021/06/21 05:24:11;;;;;;;;;;;;;;;22.92;100.00;97854.78;5074600;28;19924;-80
2021/06/21 05:26:37;;;;;;;;;;;;;;;23.61;100.00;97848.72;5039493;28;19916;-81
2021/06/21 05:29:02;;;;;;;;;;;;;;;23.36;100.00;97843.38;5073900;28;19935;-81
2021/06/21 05:31:27;;;;;;;;;;;;;;;22.63;100.00;97854.28;5074186;28;19947;-83
2021/06/21 05:33:53;;;;;;;;;;;;;;;22.94;100.00;97852.81;5056851;28;19924;-82
2021/06/21 05:36:18;;;;;;;;;;;;;;;22.87;100.00;97850.97;5039347;28;19931;-83
2021/06/21 05:38:44;;;;;;;;;;;;;;;23.64;100.00;97849.19;5053952;28;19916;-85
2021/06/21 05:41:09;;;;;;;;;;;;;;;23.59;100.00;97846.22;5040105;28;19973;-85
2021/06/21 05:43:34;;;;;;;;;;;;;;;23.00;100.00;97848.78;5075565;28;19920;-81
2021/06/21 05:46:00;;;;;;;;;;;;;;;23.47;100.00;97847.50;5057638;28;19932;-80
2021/06/21 05:48:25;;;;;;;;;;;;;;;23.70;100.00;97845.94;5075047;28;20791;-82
2021/06/21 05:50:51;;;;;;;;;;;;;;;23.11;100.00;97847.69;5056474;28;19916;-82
2021/06/21 05:53:16;;;;;;;;;;;;;;;23.79;100.00;97852.88;5074750;28;19920;-80
2021/06/21 05:55:42;;;;;;;;;;;;;;;23.69;100.00;97851.34;5074150;28;20896;-82
2021/06/21 05:58:07;;;;;;;;;;;;;;;24.49;100.00;97851.63;5058111;28;20291;-81
2021/06/21 06:00:32;;;;;;;;;;;;;;;23.69;100.00;97848.72;5075565;28;20327;-82
2021/06/21 06:02:58;;;;;;;;;;;;;;;24.09;100.00;97847.19;5057182;28;19963;-82
2021/06/21 06:05:23;;;;;;;;;;;;;;;23.61;100.00;97849.53;5074108;28;19916;-82
2021/06/21 06:07:49;;;;;;;;;;;;;;;23.95;100.00;97851.28;5058025;28;19920;-82
2021/06/21 06:10:14;;;;;;;;;;;;;;;23.61;100.00;97846.91;5041479;28;19912;-82
2021/06/21 06:12:39;;;;;;;;;;;;;;;23.78;100.00;97853.84;5040991;28;20015;-82
2021/06/21 06:15:05;;;;;;;;;;;;;;;23.89;100.00;97851.91;5055483;28;19926;-82
2021/06/21 06:17:31;;;;;;;;;;;;;;;24.12;100.00;97852.91;5055285;28;19952;-82
2021/06/21 06:19:56;;;;;;;;;;;;;;;24.48;100.00;97863.16;5074130;28;19926;-82
2021/06/21 06:22:21;;;;;;;;;;;;;;;25.34;100.00;97864.34;5038487;28;19920;-83
2021/06/21 06:24:47;;;;;;;;;;;;;;;25.14;100.00;97861.22;5056004;28;19922;-82
2021/06/21 06:27:12;;;;;;;;;;;;;;;25.03;100.00;97862.41;5055001;28;19974;-82
2021/06/21 06:29:38;;;;;;;;;;;;;;;24.55;100.00;97868.59;5074435;28;21061;-81
2021/06/21 06:32:04;;;;;;;;;;;;;;;24.18;100.00;97870.69;5055644;28;20303;-82
2021/06/21 06:34:29;;;;;;;;;;;;;;;25.07;100.00;97873.44;5074376;28;19935;-82
2021/06/21 06:36:54;;;;;;;;;;;;;;;25.17;100.00;97862.72;5074401;28;19919;-82
2021/06/21 06:39:20;;;;;;;;;;;;;;;25.61;100.00;97864.84;5056214;28;19920;-82
2021/06/21 06:41:46;;;;;;;;;;;;;;;25.27;100.00;97865.97;5055962;28;20245;-82
2021/06/21 06:44:11;;;;;;;;;;;;;;;24.21;100.00;97867.72;5056437;28;19935;-81
2021/06/21 06:46:37;;;;;;;;;;;;;;;25.01;100.00;97867.03;5055519;28;19924;-82
2021/06/21 06:49:02;;;;;;;;;;;;;;;25.46;100.00;97872.69;5054910;28;19996;-81
2021/06/21 06:51:31;;;;;;;;;;;;;;;25.70;100.00;97877.00;5055973;28;19920;-82
2021/06/21 06:54:11;;;;;;;;;;;;;;;25.90;99.13;97880.06;5075223;28;20039;-82
2021/06/21 06:59:21;;;;;;;;;;;;;;;26.00;98.95;97877.19;5056259;28;19974;-82
2021/06/21 07:01:46;;;;;;;;;;;;;;;25.17;100.00;97883.78;5039191;28;20236;-82
2021/06/21 07:04:11;;;;;;;;;;;;;;;26.51;98.66;97880.13;5055788;28;19931;-82
2021/06/21 07:06:37;;;;;;;;;;;;;;;25.99;91.81;97878.19;5056221;28;19929;-82
2021/06/21 07:09:02;;;;;;;;;;;;;;;26.72;94.89;97891.84;5055684;28;19920;-83
2021/06/21 07:11:29;;;;;;;;;;;;;;;25.30;100.00;97893.84;5073568;28;19920;-82
2021/06/21 07:13:54;;;;;;;;;;;;;;;25.83;97.00;97895.72;5072931;28;20026;-83
2021/06/21 07:16:19;;;;;;;;;;;;;;;26.51;95.40;97893.31;5055279;28;20486;-82
2021/06/21 07:18:45;;;;;;;;;;;;;;;26.96;88.46;97891.63;5055259;28;19920;-82
2021/06/21 07:21:10;;;;;;;;;;;;;;;26.82;86.62;97893.25;5054870;28;19920;-82
2021/06/21 07:23:36;;;;;;;;;;;;;;;26.86;89.09;97902.44;5037706;28;20379;-82
2021/06/21 07:26:01;;;;;;;;;;;;;;;27.18;88.59;97900.47;5073271;28;19920;-82
2021/06/21 07:28:26;;;;;;;;;;;;;;;26.39;90.62;97905.28;5070753;28;19931;-80
2021/06/21 07:30:52;;;;;;;;;;;;;;;26.87;86.96;97892.72;5055619;28;20129;-81
2021/06/21 07:33:17;;;;;;;;;;;;;;;27.38;85.92;97900.78;5055223;28;20407;-82
2021/06/21 07:35:42;;;;;;;;;;;;;;;27.11;85.74;97908.28;5072125;28;19920;-82
2021/06/21 07:38:08;;;;;;;;;;;;;;;27.09;87.54;97905.00;5055580;28;19926;-82
2021/06/21 07:40:37;;;;;;;;;;;;;;;27.01;83.09;97906.94;5053814;28;19920;-82
2021/06/21 07:43:02;;;;;;;;;;;;;;;27.90;84.65;97910.41;5072983;28;19927;-82
2021/06/21 07:45:28;;;;;;;;;;;;;;;27.86;84.47;97914.41;5037234;28;19920;-82
2021/06/21 07:47:54;;;;;;;;;;;;;;;27.31;83.79;97907.81;5053941;28;20010;-82
2021/06/21 07:50:20;;;;;;;;;;;;;;;27.89;80.96;97921.97;5072355;28;19924;-82
2021/06/21 07:52:45;;;;;;;;;;;;;;;27.47;85.76;97914.72;5055476;28;20026;-82
2021/06/21 07:55:11;;;;;;;;;;;;;;;26.75;88.40;97915.25;5055340;28;19927;-82
2021/06/21 07:57:36;;;;;;;;;;;;;;;26.15;95.05;97908.94;5055129;28;20042;-82
2021/06/21 08:00:02;;;;;;;;;;;;;;;27.48;85.43;97914.53;5072347;28;19966;-82
2021/06/21 08:02:28;;;;;;;;;;;;;;;28.13;80.02;97912.06;5073019;28;19924;-82
2021/06/21 08:04:53;;;;;;;;;;;;;;;27.98;82.50;97913.94;5054627;28;20253;-82
2021/06/21 08:07:18;;;;;;;;;;;;;;;28.27;80.31;97916.47;5072564;28;19924;-82
2021/06/21 08:09:44;;;;;;;;;;;;;;;28.09;81.32;97916.09;5074110;28;19927;-82
2021/06/21 08:12:09;;;;;;;;;;;;;;;27.71;81.92;97916.22;5076902;28;19920;-83
2021/06/21 08:14:35;;;;;;;;;;;;;;;28.03;79.50;97914.19;5058238;28;19920;-82
2021/06/21 08:17:00;;;;;;;;;;;;;;;27.54;82.83;97916.44;5076555;28;20269;-82
2021/06/21 08:19:25;;;;;;;;;;;;;;;28.06;79.70;97913.81;5058525;28;21160;-83
2021/06/21 08:21:51;;;;;;;;;;;;;;;27.53;84.88;97920.09;5076210;28;19920;-82
2021/06/21 08:24:16;;;;;;;;;;;;;;;27.62;82.42;97920.81;5076113;28;19920;-82
2021/06/21 08:26:42;;;;;;;;;;;;;;;27.00;88.54;97914.03;5076949;28;19920;-82
2021/06/21 08:29:07;;;;;;;;;;;;;;;27.21;87.96;97920.44;5075440;28;19928;-82
2021/06/21 08:31:32;;;;;;;;;;;;;;;27.09;89.28;97923.50;5059347;28;19926;-82
2021/06/21 08:33:58;;;;;;;;;;;;;;;27.52;85.19;97934.31;5058230;28;19957;-82
2021/06/21 08:36:24;;;;;;;;;;;;;;;27.81;82.81;97927.34;5076458;28;19920;-83
2021/06/21 08:38:49;;;;;;;;;;;;;;;27.42;85.81;97928.50;5058596;28;21031;-82
2021/06/21 08:41:14;;;;;;;;;;;;;;;27.74;83.89;97927.28;5058858;28;19915;-82
2021/06/21 08:43:40;;;;;;;;;;;;;;;27.79;85.01;97924.06;5075843;28;20443;-82
2021/06/21 08:46:06;;;;;;;;;;;;;;;28.54;81.12;97930.81;5076130;28;20125;-81
2021/06/21 08:48:32;;;;;;;;;;;;;;;25.83;98.17;97931.84;5057836;28;19961;-81
2021/06/21 08:51:00;;;;;;;;;;;;;;;27.11;89.34;97937.38;5059334;28;19920;-81
2021/06/21 08:53:26;;;;;;;;;;;;;;;26.15;96.73;97933.50;5057761;28;19984;-81
2021/06/21 08:55:51;;;;;;;;;;;;;;;26.14;96.69;97926.59;5057546;28;19920;-81
2021/06/21 08:58:17;;;;;;;;;;;;;;;26.11;96.22;97934.84;5075509;28;20022;-81
2021/06/21 09:00:42;;;;;;;;;;;;;;;26.31;93.56;97931.75;5053377;28;19920;-79
2021/06/21 09:03:07;;;;;;;;;;;;;;;25.59;100.00;97936.22;5056335;28;19924;-79
2021/06/21 09:05:34;;;;;;;;;;;;;;;26.23;100.00;97938.75;5076100;28;19916;-79
2021/06/21 09:08:01;;;;;;;;;;;;;;;27.51;94.25;97924.75;5052760;28;20870;-79
2021/06/21 09:10:27;;;;;;;;;;;;;;;26.81;90.54;97920.66;5055681;28;20503;-81
2021/06/21 09:13:13;;;;;;;;;;;;;;;27.05;88.39;97922.25;5072754;28;19916;-83
2021/06/21 09:15:40;;;;;;;;;;;;;;;28.14;85.30;97926.94;5073323;28;19959;-79
2021/06/21 09:18:24;;;;;;;;;;;;;;;25.40;98.50;97928.69;5074429;28;19960;-80
2021/06/21 09:20:49;;;;;;;;;;;;;;;27.00;93.38;97913.22;5072948;28;19932;-80
2021/06/21 09:23:14;;;;;;;;;;;;;;;27.79;94.60;97921.44;5074731;28;20333;-79
2021/06/21 09:25:41;;;;;;;;;;;;;;;27.83;88.10;97920.06;5073004;28;20368;-79
2021/06/21 09:28:07;;;;;;;;;;;;;;;26.92;92.88;97922.88;5057535;28;19988;-79
2021/06/21 09:30:33;;;;;;;;;;;;;;;28.85;80.20;97919.06;5075120;28;20039;-79
2021/06/21 09:32:59;;;;;;;;;;;;;;;29.57;76.30;97925.84;5050718;28;19959;-82
2021/06/21 09:35:27;;;;;;;;;;;;;;;29.98;73.90;97918.88;5049405;28;20043;-81
2021/06/21 09:37:53;;;;;;;;;;;;;;;30.12;73.64;97919.72;5072933;28;19923;-81
2021/06/21 09:40:27;;;;;;;;;;;;;;;29.79;75.25;97915.16;5053580;28;19920;-81
2021/06/21 09:42:53;;;;;;;;;;;;;;;30.25;70.58;97911.81;5053333;28;19946;-82
2021/06/21 09:45:18;;;;;;;;;;;;;;;29.01;78.74;97912.63;5055168;28;19928;-83
2021/06/21 09:47:43;;;;;;;;;;;;;;;29.46;73.93;97917.63;5053496;28;19920;-85
2021/06/21 09:50:26;;;;;;;;;;;;;;;27.90;80.32;97926.28;5051402;28;19935;-85
2021/06/21 09:52:59;;;;;;;;;;;;;;;26.77;87.26;97924.66;5053635;28;19920;-85
2021/06/21 09:55:29;;;;;;;;;;;;;;;29.34;74.66;97935.94;5053201;28;19936;-84
2021/06/21 09:58:05;;;;;;;;;;;;;;;29.14;75.91;97931.31;5034088;28;19924;-84
2021/06/21 10:00:30;;;;;;;;;;;;;;;28.56;80.45;97939.41;5035601;28;19929;-87
2021/06/21 10:03:06;;;;;;;;;;;;;;;29.59;74.90;97937.06;5035090;28;19931;-84
2021/06/21 10:05:31;;;;;;;;;;;;;;;30.47;71.39;97943.53;5050577;28;19924;-84
2021/06/21 10:07:57;;;;;;;;;;;;;;;30.44;68.65;97945.56;5067790;28;20418;-84
2021/06/21 10:10:22;;;;;;;;;;;;;;;30.64;64.24;97944.78;5051466;28;19932;-83
2021/06/21 10:12:48;;;;;;;;;;;;;;;30.65;68.65;97949.06;5052092;28;19931;-82
2021/06/21 10:15:14;;;;;;;;;;;;;;;31.12;67.55;97955.22;5070338;28;19931;-83
2021/06/21 10:17:39;;;;;;;;;;;;;;;30.99;66.36;97957.88;5052573;28;20518;-80
2021/06/21 10:20:06;;;;;;;;;;;;;;;30.72;63.08;97955.19;5033713;28;19963;-81
2021/06/21 10:22:32;;;;;;;;;;;;;;;30.50;67.79;97964.38;5066965;28;19920;-80
2021/06/21 10:24:58;;;;;;;;;;;;;;;31.53;68.05;97958.66;5049460;28;20685;-80
2021/06/21 10:27:28;;;;;;;;;;;;;;;29.32;64.09;97959.97;5051005;28;19950;-81
2021/06/21 10:29:55;;;;;;;;;;;;;;;28.17;78.65;97963.63;5071008;28;20346;-81
2021/06/21 10:32:20;;;;;;;;;;;;;;;28.09;74.37;97961.91;5050102;28;19972;-80
2021/06/21 10:34:47;;;;;;;;;;;;;;;29.24;73.83;97961.97;5053368;28;20023;-80
2021/06/21 10:37:14;;;;;;;;;;;;;;;29.43;70.98;97969.25;5049832;28;20521;-79
2021/06/21 10:39:43;;;;;;;;;;;;;;;29.41;73.41;97968.59;5070125;28;19924;-80
2021/06/21 10:42:09;;;;;;;;;;;;;;;29.45;68.94;97975.16;5050178;28;19924;-80
2021/06/21 10:44:36;;;;;;;;;;;;;;;28.34;74.13;97975.63;5072102;28;19920;-80
2021/06/21 10:47:20;;;;;;;;;;;;;;;29.41;70.60;97971.25;5073285;28;19931;-80
2021/06/21 10:50:13;;;;;;;;;;;;;;;30.15;68.76;97972.44;5073763;28;19924;-79
2021/06/21 10:52:40;;;;;;;;;;;;;;;29.85;67.25;97966.63;5070081;28;20546;-79
2021/06/21 10:55:20;;;;;;;;;;;;;;;29.68;64.20;97971.44;5073273;28;19928;-79
2021/06/21 10:57:46;;;;;;;;;;;;;;;30.53;62.39;97954.16;5074659;28;19920;-79
2021/06/21 11:00:13;;;;;;;;;;;;;;;31.04;63.12;97972.22;5055341;28;19927;-79
2021/06/21 11:02:38;;;;;;;;;;;;;;;30.49;65.41;97976.03;5073328;28;19935;-79
2021/06/21 11:05:04;;;;;;;;;;;;;;;29.09;73.72;97968.19;5055943;28;19920;-82
2021/06/21 11:07:29;;;;;;;;;;;;;;;31.37;62.14;97967.88;5074587;28;19924;-81
2021/06/21 11:09:57;;;;;;;;;;;;;;;30.28;63.63;97967.19;5056202;28;19959;-79
2021/06/21 11:12:23;;;;;;;;;;;;;;;29.30;69.56;97969.97;5055479;28;19920;-80
2021/06/21 11:15:07;;;;;;;;;;;;;;;28.98;70.57;97966.84;5074751;28;19926;-79
2021/06/21 11:17:33;;;;;;;;;;;;;;;29.82;67.33;97973.13;5055770;28;20795;-78
2021/06/21 11:20:16;;;;;;;;;;;;;;;29.49;65.69;97968.47;5074657;28;19920;-79
2021/06/21 11:22:42;;;;;;;;;;;;;;;29.19;68.01;97976.66;5074437;28;19978;-79
2021/06/21 11:25:21;;;;;;;;;;;;;;;30.55;63.62;97970.72;5051587;28;20010;-79
2021/06/21 11:27:46;;;;;;;;;;;;;;;29.19;68.36;97979.28;5054458;28;19930;-80
2021/06/21 11:30:24;;;;;;;;;;;;;;;28.55;69.84;97974.81;5053415;28;19924;-79
2021/06/21 11:33:05;;;;;;;;;;;;;;;29.06;73.95;97984.47;5054896;28;19935;-80
2021/06/21 11:35:45;;;;;;;;;;;;;;;28.45;73.70;97992.03;5072070;28;19920;-79
2021/06/21 11:38:23;;;;;;;;;;;;;;;28.09;76.32;97988.38;5072563;28;20588;-79
2021/06/21 11:40:48;;;;;;;;;;;;;;;27.72;72.58;97991.97;5071712;28;19990;-79
2021/06/21 11:43:15;;;;;;;;;;;;;;;27.09;79.88;97994.88;5053839;28;19924;-80
2021/06/21 11:45:47;;;;;;;;;;;;;;;27.30;78.49;98003.97;5073135;28;19920;-79
2021/06/21 11:48:26;;;;;;;;;;;;;;;26.26;84.22;98012.28;5072617;28;20380;-83
2021/06/21 11:50:51;;;;;;;;;;;;;;;24.74;100.00;98031.47;5055441;28;19920;-79
2021/06/21 11:53:17;;;;;;;;;;;;;;;23.48;100.00;98038.34;5054220;28;19981;-79
2021/06/21 11:55:42;;;;;;;;;;;;;;;23.97;100.00;98033.38;5071574;28;19943;-80
2021/06/21 11:58:08;;;;;;;;;;;;;;;24.12;100.00;98052.84;5072083;28;19931;-81
2021/06/21 12:00:34;;;;;;;;;;;;;;;24.96;100.00;98051.09;5053277;28;20350;-82
2021/06/21 12:03:03;;;;;;;;;;;;;;;24.40;100.00;98060.50;5072337;28;20009;-82
2021/06/21 12:05:28;;;;;;;;;;;;;;;24.52;100.00;98067.16;5071395;28;19931;-82
2021/06/21 12:07:54;;;;;;;;;;;;;;;25.39;100.00;98062.31;5071196;28;19920;-81
2021/06/21 12:10:20;;;;;;;;;;;;;;;25.69;100.00;98067.88;5073939;28;19986;-82
2021/06/21 12:12:46;;;;;;;;;;;;;;;24.63;100.00;98073.91;5054176;28;19928;-81
2021/06/21 12:15:13;;;;;;;;;;;;;;;25.31;100.00;98074.66;5053842;28;19927;-81
2021/06/21 12:17:38;;;;;;;;;;;;;;;25.05;100.00;98071.19;5055288;28;20466;-83
2021/06/21 12:20:15;;;;;;;;;;;;;;;25.05;100.00;98076.44;5053892;28;20019;-80
2021/06/21 12:22:41;;;;;;;;;;;;;;;24.99;100.00;98082.38;5037263;28;20287;-83
2021/06/21 12:25:06;;;;;;;;;;;;;;;21.89;100.00;98107.84;5054315;28;19927;-81
2021/06/21 12:27:33;;;;;;;;;;;;;;;20.81;100.00;98114.94;5049480;28;19924;-83
2021/06/21 12:29:59;;;;;;;;;;;;;;;21.03;100.00;98115.69;5054300;28;19930;-81
2021/06/21 12:32:34;;;;;;;;;;;;;;;22.20;100.00;98120.75;5053995;28;20007;-81
2021/06/21 12:35:00;;;;;;;;;;;;;;;21.81;100.00;98128.72;5071060;28;19975;-81
2021/06/21 12:37:26;;;;;;;;;;;;;;;22.51;100.00;98137.88;5071725;28;20004;-81
2021/06/21 12:40:03;;;;;;;;;;;;;;;22.39;100.00;98143.47;5053771;28;20063;-81
2021/06/21 12:42:30;;;;;;;;;;;;;;;22.87;100.00;98143.19;5070969;28;20376;-81